sensor_id;sensor_type;location;lat;lon;timestamp;temperature;humidity
58161;DHT22;49345;47.428;9.892;2022-07-22T00:00:05;17.20;99.90
58161;DHT22;49345;47.428;9.892;2022-07-22T00:02:31;17.20;99.90
58161;DHT22;49345;47.428;9.892;2022-07-22T00:04:57;17.20;99.90
58161;DHT22;49345;47.428;9.892;2022-07-22T00:07:23;17.10;99.90
58161;DHT22;49345;47.428;9.892;2022-07-22T00:09:48;17.10;99.90
58161;DHT22;49345;47.428;9.892;2022-07-22T00:12:14;17.10;99.90
58161;DHT22;49345;47.428;9.892;2022-07-22T00:14:39;17.10;99.90
58161;DHT22;49345;47.428;9.892;2022-07-22T00:17:05;17.10;99.90
58161;DHT22;49345;47.428;9.892;2022-07-22T00:19:31;17.00;99.90
58161;DHT22;49345;47.428;9.892;2022-07-22T00:21:56;17.00;99.90
58161;DHT22;49345;47.428;9.892;2022-07-22T00:24:22;17.00;99.90
58161;DHT22;49345;47.428;9.892;2022-07-22T00:26:48;17.00;99.90
58161;DHT22;49345;47.428;9.892;2022-07-22T00:29:13;17.00;99.90
58161;DHT22;49345;47.428;9.892;2022-07-22T00:31:39;17.10;99.90
58161;DHT22;49345;47.428;9.892;2022-07-22T00:34:04;17.10;99.90
58161;DHT22;49345;47.428;9.892;2022-07-22T00:36:30;17.10;99.90
58161;DHT22;49345;47.428;9.892;2022-07-22T00:38:56;17.10;99.90
58161;DHT22;49345;47.428;9.892;2022-07-22T00:41:22;17.10;99.90
58161;DHT22;49345;47.428;9.892;2022-07-22T00:43:48;17.10;99.90
58161;DHT22;49345;47.428;9.892;2022-07-22T00:46:14;17.00;99.90
58161;DHT22;49345;47.428;9.892;2022-07-22T00:48:39;17.00;99.90
58161;DHT22;49345;47.428;9.892;2022-07-22T00:51:05;16.90;99.90
58161;DHT22;49345;47.428;9.892;2022-07-22T00:53:30;16.90;99.90
58161;DHT22;49345;47.428;9.892;2022-07-22T00:55:56;16.90;99.90
58161;DHT22;49345;47.428;9.892;2022-07-22T00:58:22;16.80;99.90
58161;DHT22;49345;47.428;9.892;2022-07-22T01:00:47;16.80;99.90
58161;DHT22;49345;47.428;9.892;2022-07-22T01:03:13;16.80;99.90
58161;DHT22;49345;47.428;9.892;2022-07-22T01:05:39;16.70;99.90
58161;DHT22;49345;47.428;9.892;2022-07-22T01:08:05;16.70;99.90
58161;DHT22;49345;47.428;9.892;2022-07-22T01:10:31;16.70;99.90
58161;DHT22;49345;47.428;9.892;2022-07-22T01:12:57;16.70;99.90
58161;DHT22;49345;47.428;9.892;2022-07-22T01:15:22;16.70;99.90
58161;DHT22;49345;47.428;9.892;2022-07-22T01:17:48;16.60;99.90
58161;DHT22;49345;47.428;9.892;2022-07-22T01:20:13;16.70;99.90
58161;DHT22;49345;47.428;9.892;2022-07-22T01:22:39;16.60;99.90
58161;DHT22;49345;47.428;9.892;2022-07-22T01:25:05;16.60;99.90
58161;DHT22;49345;47.428;9.892;2022-07-22T01:27:30;16.60;99.90
58161;DHT22;49345;47.428;9.892;2022-07-22T01:29:56;16.60;99.90
58161;DHT22;49345;47.428;9.892;2022-07-22T01:32:22;16.50;99.90
58161;DHT22;49345;47.428;9.892;2022-07-22T01:34:47;16.50;99.90
58161;DHT22;49345;47.428;9.892;2022-07-22T01:37:13;16.40;99.90
58161;DHT22;49345;47.428;9.892;2022-07-22T01:39:39;16.40;99.90
58161;DHT22;49345;47.428;9.892;2022-07-22T01:42:04;16.40;99.90
58161;DHT22;49345;47.428;9.892;2022-07-22T01:44:31;16.40;99.90
58161;DHT22;49345;47.428;9.892;2022-07-22T01:46:56;16.40;99.90
58161;DHT22;49345;47.428;9.892;2022-07-22T01:49:24;16.40;99.90
58161;DHT22;49345;47.428;9.892;2022-07-22T01:51:49;16.40;99.90
58161;DHT22;49345;47.428;9.892;2022-07-22T01:54:15;16.40;99.90
58161;DHT22;49345;47.428;9.892;2022-07-22T01:56:41;16.30;99.90
58161;DHT22;49345;47.428;9.892;2022-07-22T01:59:06;16.30;99.90
58161;DHT22;49345;47.428;9.892;2022-07-22T02:01:33;16.30;99.90
58161;DHT22;49345;47.428;9.892;2022-07-22T02:03:59;16.20;99.90
58161;DHT22;49345;47.428;9.892;2022-07-22T02:06:24;16.20;99.90
58161;DHT22;49345;47.428;9.892;2022-07-22T02:08:50;16.20;99.90
58161;DHT22;49345;47.428;9.892;2022-07-22T02:11:15;16.20;99.90
58161;DHT22;49345;47.428;9.892;2022-07-22T02:13:41;16.20;99.90
58161;DHT22;49345;47.428;9.892;2022-07-22T02:16:07;16.10;99.90
58161;DHT22;49345;47.428;9.892;2022-07-22T02:18:32;16.10;99.90
58161;DHT22;49345;47.428;9.892;2022-07-22T02:20:58;16.10;99.90
58161;DHT22;49345;47.428;9.892;2022-07-22T02:23:23;16.10;99.90
58161;DHT22;49345;47.428;9.892;2022-07-22T02:25:49;16.10;99.90
58161;DHT22;49345;47.428;9.892;2022-07-22T02:28:15;16.10;99.90
58161;DHT22;49345;47.428;9.892;2022-07-22T02:30:41;16.00;99.90
58161;DHT22;49345;47.428;9.892;2022-07-22T02:33:07;16.00;99.90
58161;DHT22;49345;47.428;9.892;2022-07-22T02:35:32;16.00;99.90
58161;DHT22;49345;47.428;9.892;2022-07-22T02:37:58;15.90;99.90
58161;DHT22;49345;47.428;9.892;2022-07-22T02:40:24;15.90;99.90
58161;DHT22;49345;47.428;9.892;2022-07-22T02:42:49;15.90;99.90
58161;DHT22;49345;47.428;9.892;2022-07-22T02:45:15;15.90;99.90
58161;DHT22;49345;47.428;9.892;2022-07-22T02:50:36;15.80;99.90
58161;DHT22;49345;47.428;9.892;2022-07-22T02:53:03;15.90;99.90
58161;DHT22;49345;47.428;9.892;2022-07-22T02:55:28;15.80;99.90
58161;DHT22;49345;47.428;9.892;2022-07-22T02:57:54;15.80;99.90
58161;DHT22;49345;47.428;9.892;2022-07-22T03:00:20;15.80;99.90
58161;DHT22;49345;47.428;9.892;2022-07-22T03:02:45;15.80;99.90
58161;DHT22;49345;47.428;9.892;2022-07-22T03:05:11;15.80;99.90
58161;DHT22;49345;47.428;9.892;2022-07-22T03:07:37;15.80;99.90
58161;DHT22;49345;47.428;9.892;2022-07-22T03:10:03;15.70;99.90
58161;DHT22;49345;47.428;9.892;2022-07-22T03:12:29;15.70;99.90
58161;DHT22;49345;47.428;9.892;2022-07-22T03:14:55;15.70;99.90
58161;DHT22;49345;47.428;9.892;2022-07-22T03:17:20;15.70;99.90
58161;DHT22;49345;47.428;9.892;2022-07-22T03:19:46;15.70;99.90
58161;DHT22;49345;47.428;9.892;2022-07-22T03:22:12;15.60;99.90
58161;DHT22;49345;47.428;9.892;2022-07-22T03:24:37;15.60;99.90
58161;DHT22;49345;47.428;9.892;2022-07-22T03:27:03;15.50;99.90
58161;DHT22;49345;47.428;9.892;2022-07-22T03:29:29;15.60;99.90
58161;DHT22;49345;47.428;9.892;2022-07-22T03:31:55;15.60;99.90
58161;DHT22;49345;47.428;9.892;2022-07-22T03:34:20;15.50;99.90
58161;DHT22;49345;47.428;9.892;2022-07-22T03:36:46;15.60;99.90
58161;DHT22;49345;47.428;9.892;2022-07-22T03:39:11;15.60;99.90
58161;DHT22;49345;47.428;9.892;2022-07-22T03:41:37;15.50;99.90
58161;DHT22;49345;47.428;9.892;2022-07-22T03:44:03;15.50;99.90
58161;DHT22;49345;47.428;9.892;2022-07-22T03:46:28;15.50;99.90
58161;DHT22;49345;47.428;9.892;2022-07-22T03:48:54;15.50;99.90
58161;DHT22;49345;47.428;9.892;2022-07-22T03:51:20;15.50;99.90
58161;DHT22;49345;47.428;9.892;2022-07-22T03:53:45;15.40;99.90
58161;DHT22;49345;47.428;9.892;2022-07-22T03:56:11;15.40;99.90
58161;DHT22;49345;47.428;9.892;2022-07-22T03:58:37;15.40;99.90
58161;DHT22;49345;47.428;9.892;2022-07-22T04:01:02;15.30;99.90
58161;DHT22;49345;47.428;9.892;2022-07-22T04:03:28;15.30;99.90
58161;DHT22;49345;47.428;9.892;2022-07-22T04:05:54;15.30;99.90
58161;DHT22;49345;47.428;9.892;2022-07-22T04:08:19;15.40;99.90
58161;DHT22;49345;47.428;9.892;2022-07-22T04:10:45;15.40;99.90
58161;DHT22;49345;47.428;9.892;2022-07-22T04:13:11;15.40;99.90
58161;DHT22;49345;47.428;9.892;2022-07-22T04:15:36;15.40;99.90
58161;DHT22;49345;47.428;9.892;2022-07-22T04:18:02;15.40;99.90
58161;DHT22;49345;47.428;9.892;2022-07-22T04:20:27;15.30;99.90
58161;DHT22;49345;47.428;9.892;2022-07-22T04:22:53;15.40;99.90
58161;DHT22;49345;47.428;9.892;2022-07-22T04:25:19;15.40;99.90
58161;DHT22;49345;47.428;9.892;2022-07-22T04:27:44;15.40;99.90
58161;DHT22;49345;47.428;9.892;2022-07-22T04:30:10;15.40;99.90
58161;DHT22;49345;47.428;9.892;2022-07-22T04:32:36;15.40;99.90
58161;DHT22;49345;47.428;9.892;2022-07-22T04:35:02;15.50;99.90
58161;DHT22;49345;47.428;9.892;2022-07-22T04:37:27;15.40;99.90
58161;DHT22;49345;47.428;9.892;2022-07-22T04:39:54;15.40;99.90
58161;DHT22;49345;47.428;9.892;2022-07-22T04:42:19;15.50;99.90
58161;DHT22;49345;47.428;9.892;2022-07-22T04:44:45;15.60;99.90
58161;DHT22;49345;47.428;9.892;2022-07-22T04:47:12;15.60;99.90
58161;DHT22;49345;47.428;9.892;2022-07-22T04:49:37;15.60;99.90
58161;DHT22;49345;47.428;9.892;2022-07-22T04:52:03;15.60;99.90
58161;DHT22;49345;47.428;9.892;2022-07-22T04:54:29;15.70;99.90
58161;DHT22;49345;47.428;9.892;2022-07-22T04:56:54;15.70;99.90
58161;DHT22;49345;47.428;9.892;2022-07-22T04:59:20;15.80;99.90
58161;DHT22;49345;47.428;9.892;2022-07-22T05:01:45;15.80;99.90
58161;DHT22;49345;47.428;9.892;2022-07-22T05:04:11;15.80;99.90
58161;DHT22;49345;47.428;9.892;2022-07-22T05:06:37;15.90;99.90
58161;DHT22;49345;47.428;9.892;2022-07-22T05:09:02;15.90;99.90
58161;DHT22;49345;47.428;9.892;2022-07-22T05:11:28;16.00;99.90
58161;DHT22;49345;47.428;9.892;2022-07-22T05:13:54;16.10;99.90
58161;DHT22;49345;47.428;9.892;2022-07-22T05:16:19;16.10;99.90
58161;DHT22;49345;47.428;9.892;2022-07-22T05:18:45;16.20;99.90
58161;DHT22;49345;47.428;9.892;2022-07-22T05:21:11;16.30;99.90
58161;DHT22;49345;47.428;9.892;2022-07-22T05:23:36;16.30;99.90
58161;DHT22;49345;47.428;9.892;2022-07-22T05:26:03;16.40;99.90
58161;DHT22;49345;47.428;9.892;2022-07-22T05:28:29;16.60;99.90
58161;DHT22;49345;47.428;9.892;2022-07-22T05:30:55;16.70;99.90
58161;DHT22;49345;47.428;9.892;2022-07-22T05:33:20;16.70;99.90
58161;DHT22;49345;47.428;9.892;2022-07-22T05:35:46;16.70;99.90
58161;DHT22;49345;47.428;9.892;2022-07-22T05:38:11;16.80;99.90
58161;DHT22;49345;47.428;9.892;2022-07-22T05:40:37;16.90;99.90
58161;DHT22;49345;47.428;9.892;2022-07-22T05:43:03;17.00;99.90
58161;DHT22;49345;47.428;9.892;2022-07-22T05:45:29;17.00;99.90
58161;DHT22;49345;47.428;9.892;2022-07-22T05:47:54;17.00;99.90
58161;DHT22;49345;47.428;9.892;2022-07-22T05:50:20;17.10;99.90
58161;DHT22;49345;47.428;9.892;2022-07-22T05:52:46;17.20;99.90
58161;DHT22;49345;47.428;9.892;2022-07-22T05:55:11;17.20;99.90
58161;DHT22;49345;47.428;9.892;2022-07-22T05:57:37;17.40;99.90
58161;DHT22;49345;47.428;9.892;2022-07-22T06:00:03;17.40;99.90
58161;DHT22;49345;47.428;9.892;2022-07-22T06:02:29;17.50;99.90
58161;DHT22;49345;47.428;9.892;2022-07-22T06:04:55;17.60;99.90
58161;DHT22;49345;47.428;9.892;2022-07-22T06:07:21;17.70;99.90
58161;DHT22;49345;47.428;9.892;2022-07-22T06:09:46;17.80;99.90
58161;DHT22;49345;47.428;9.892;2022-07-22T06:12:12;17.90;99.90
58161;DHT22;49345;47.428;9.892;2022-07-22T06:14:38;17.90;99.90
58161;DHT22;49345;47.428;9.892;2022-07-22T06:17:03;18.00;99.90
58161;DHT22;49345;47.428;9.892;2022-07-22T06:19:29;18.10;99.90
58161;DHT22;49345;47.428;9.892;2022-07-22T06:21:55;18.20;99.90
58161;DHT22;49345;47.428;9.892;2022-07-22T06:24:21;18.20;99.90
58161;DHT22;49345;47.428;9.892;2022-07-22T06:26:46;18.30;99.90
58161;DHT22;49345;47.428;9.892;2022-07-22T06:29:12;18.30;99.90
58161;DHT22;49345;47.428;9.892;2022-07-22T06:31:38;18.50;99.90
58161;DHT22;49345;47.428;9.892;2022-07-22T06:34:03;18.60;99.90
58161;DHT22;49345;47.428;9.892;2022-07-22T06:36:31;18.70;99.90
58161;DHT22;49345;47.428;9.892;2022-07-22T06:38:57;18.80;99.90
58161;DHT22;49345;47.428;9.892;2022-07-22T06:41:22;18.80;99.90
58161;DHT22;49345;47.428;9.892;2022-07-22T06:43:48;18.90;99.90
58161;DHT22;49345;47.428;9.892;2022-07-22T06:46:13;19.00;99.90
58161;DHT22;49345;47.428;9.892;2022-07-22T06:48:39;19.10;99.90
58161;DHT22;49345;47.428;9.892;2022-07-22T06:51:05;19.10;99.90
58161;DHT22;49345;47.428;9.892;2022-07-22T06:53:31;19.20;99.90
58161;DHT22;49345;47.428;9.892;2022-07-22T06:55:57;19.20;99.90
58161;DHT22;49345;47.428;9.892;2022-07-22T06:58:22;19.40;99.90
58161;DHT22;49345;47.428;9.892;2022-07-22T07:00:48;19.40;99.90
58161;DHT22;49345;47.428;9.892;2022-07-22T07:03:14;19.60;99.90
58161;DHT22;49345;47.428;9.892;2022-07-22T07:05:39;19.70;99.90
58161;DHT22;49345;47.428;9.892;2022-07-22T07:08:05;19.70;99.90
58161;DHT22;49345;47.428;9.892;2022-07-22T07:10:31;19.80;99.90
58161;DHT22;49345;47.428;9.892;2022-07-22T07:12:57;19.90;99.90
58161;DHT22;49345;47.428;9.892;2022-07-22T07:15:23;20.00;99.40
58161;DHT22;49345;47.428;9.892;2022-07-22T07:17:49;20.00;99.00
58161;DHT22;49345;47.428;9.892;2022-07-22T07:20:15;20.10;99.40
58161;DHT22;49345;47.428;9.892;2022-07-22T07:22:40;20.20;99.20
58161;DHT22;49345;47.428;9.892;2022-07-22T07:25:07;20.40;99.00
58161;DHT22;49345;47.428;9.892;2022-07-22T07:27:32;20.40;99.00
58161;DHT22;49345;47.428;9.892;2022-07-22T07:29:58;20.50;98.80
58161;DHT22;49345;47.428;9.892;2022-07-22T07:32:24;20.60;98.70
58161;DHT22;49345;47.428;9.892;2022-07-22T07:34:49;20.60;98.80
58161;DHT22;49345;47.428;9.892;2022-07-22T07:37:15;20.80;97.90
58161;DHT22;49345;47.428;9.892;2022-07-22T07:39:41;20.90;98.20
58161;DHT22;49345;47.428;9.892;2022-07-22T07:42:06;20.90;97.50
58161;DHT22;49345;47.428;9.892;2022-07-22T07:44:32;21.00;97.20
58161;DHT22;49345;47.428;9.892;2022-07-22T07:46:58;21.20;97.40
58161;DHT22;49345;47.428;9.892;2022-07-22T07:49:23;21.20;97.10
58161;DHT22;49345;47.428;9.892;2022-07-22T07:51:49;21.30;96.30
58161;DHT22;49345;47.428;9.892;2022-07-22T07:54:15;21.40;95.70
58161;DHT22;49345;47.428;9.892;2022-07-22T07:56:40;21.50;95.30
58161;DHT22;49345;47.428;9.892;2022-07-22T07:59:06;21.50;95.00
58161;DHT22;49345;47.428;9.892;2022-07-22T08:01:31;21.60;95.40
58161;DHT22;49345;47.428;9.892;2022-07-22T08:03:57;21.60;95.00
58161;DHT22;49345;47.428;9.892;2022-07-22T08:06:23;21.70;94.30
58161;DHT22;49345;47.428;9.892;2022-07-22T08:08:48;21.80;94.00
58161;DHT22;49345;47.428;9.892;2022-07-22T08:11:14;21.90;93.70
58161;DHT22;49345;47.428;9.892;2022-07-22T08:13:40;22.00;94.10
58161;DHT22;49345;47.428;9.892;2022-07-22T08:16:05;22.00;93.70
58161;DHT22;49345;47.428;9.892;2022-07-22T08:18:31;22.10;93.30
58161;DHT22;49345;47.428;9.892;2022-07-22T08:20:57;22.20;93.50
58161;DHT22;49345;47.428;9.892;2022-07-22T08:23:22;22.30;92.80
58161;DHT22;49345;47.428;9.892;2022-07-22T08:25:48;22.40;91.70
58161;DHT22;49345;47.428;9.892;2022-07-22T08:28:14;22.40;91.20
58161;DHT22;49345;47.428;9.892;2022-07-22T08:30:39;22.50;91.30
58161;DHT22;49345;47.428;9.892;2022-07-22T08:33:05;22.50;91.70
58161;DHT22;49345;47.428;9.892;2022-07-22T08:35:31;22.60;92.10
58161;DHT22;49345;47.428;9.892;2022-07-22T08:37:57;22.60;91.70
58161;DHT22;49345;47.428;9.892;2022-07-22T08:40:23;22.70;91.70
58161;DHT22;49345;47.428;9.892;2022-07-22T08:42:49;22.80;92.30
58161;DHT22;49345;47.428;9.892;2022-07-22T08:45:15;23.00;92.10
58161;DHT22;49345;47.428;9.892;2022-07-22T08:47:43;23.20;91.00
58161;DHT22;49345;47.428;9.892;2022-07-22T08:50:09;23.20;90.20
58161;DHT22;49345;47.428;9.892;2022-07-22T08:52:35;23.20;90.20
58161;DHT22;49345;47.428;9.892;2022-07-22T08:55:02;23.20;90.60
58161;DHT22;49345;47.428;9.892;2022-07-22T08:57:27;23.40;90.50
58161;DHT22;49345;47.428;9.892;2022-07-22T08:59:55;23.50;90.00
58161;DHT22;49345;47.428;9.892;2022-07-22T09:02:21;23.50;89.60
58161;DHT22;49345;47.428;9.892;2022-07-22T09:07:42;23.80;87.80
58161;DHT22;49345;47.428;9.892;2022-07-22T09:10:09;23.90;88.00
58161;DHT22;49345;47.428;9.892;2022-07-22T09:12:35;24.00;88.00
58161;DHT22;49345;47.428;9.892;2022-07-22T09:15:14;24.10;86.60
58161;DHT22;49345;47.428;9.892;2022-07-22T09:17:40;24.20;85.60
58161;DHT22;49345;47.428;9.892;2022-07-22T09:23:01;24.50;82.60
58161;DHT22;49345;47.428;9.892;2022-07-22T09:28:20;24.70;81.50
58161;DHT22;49345;47.428;9.892;2022-07-22T09:33:26;25.00;82.10
58161;DHT22;49345;47.428;9.892;2022-07-22T09:35:53;25.00;82.70
58161;DHT22;49345;47.428;9.892;2022-07-22T09:41:28;25.20;79.80
58161;DHT22;49345;47.428;9.892;2022-07-22T09:43:54;25.20;79.60
58161;DHT22;49345;47.428;9.892;2022-07-22T09:46:32;25.20;80.10
58161;DHT22;49345;47.428;9.892;2022-07-22T09:48:59;25.30;79.90
58161;DHT22;49345;47.428;9.892;2022-07-22T09:51:25;25.20;80.10
58161;DHT22;49345;47.428;9.892;2022-07-22T09:53:50;25.20;80.30
58161;DHT22;49345;47.428;9.892;2022-07-22T09:56:16;25.20;83.30
58161;DHT22;49345;47.428;9.892;2022-07-22T09:58:42;25.40;82.70
58161;DHT22;49345;47.428;9.892;2022-07-22T10:01:08;25.60;81.40
58161;DHT22;49345;47.428;9.892;2022-07-22T10:03:35;25.70;80.60
58161;DHT22;49345;47.428;9.892;2022-07-22T10:06:03;25.90;84.30
58161;DHT22;49345;47.428;9.892;2022-07-22T10:08:30;26.10;83.30
58161;DHT22;49345;47.428;9.892;2022-07-22T10:10:58;26.30;83.30
58161;DHT22;49345;47.428;9.892;2022-07-22T10:13:24;26.50;80.30
58161;DHT22;49345;47.428;9.892;2022-07-22T10:15:49;26.50;80.00
58161;DHT22;49345;47.428;9.892;2022-07-22T10:18:16;26.60;80.40
58161;DHT22;49345;47.428;9.892;2022-07-22T10:20:42;26.60;79.30
58161;DHT22;49345;47.428;9.892;2022-07-22T10:23:09;26.70;81.60
58161;DHT22;49345;47.428;9.892;2022-07-22T10:28:35;26.90;79.00
58161;DHT22;49345;47.428;9.892;2022-07-22T10:33:56;27.00;79.70
58161;DHT22;49345;47.428;9.892;2022-07-22T10:39:15;27.10;76.90
58161;DHT22;49345;47.428;9.892;2022-07-22T10:41:41;27.10;77.10
58161;DHT22;49345;47.428;9.892;2022-07-22T10:44:07;27.10;77.30
58161;DHT22;49345;47.428;9.892;2022-07-22T10:49:31;27.20;79.00
58161;DHT22;49345;47.428;9.892;2022-07-22T10:57:53;27.40;76.80
58161;DHT22;49345;47.428;9.892;2022-07-22T11:00:18;27.50;77.00
58161;DHT22;49345;47.428;9.892;2022-07-22T11:02:44;27.60;76.70
58161;DHT22;49345;47.428;9.892;2022-07-22T11:05:10;27.70;76.90
58161;DHT22;49345;47.428;9.892;2022-07-22T11:10:29;27.80;75.00
58161;DHT22;49345;47.428;9.892;2022-07-22T11:15:24;28.10;74.30
58161;DHT22;49345;47.428;9.892;2022-07-22T11:17:50;28.20;73.10
58161;DHT22;49345;47.428;9.892;2022-07-22T11:20:20;28.30;73.60
58161;DHT22;49345;47.428;9.892;2022-07-22T11:22:46;28.40;74.30
58161;DHT22;49345;47.428;9.892;2022-07-22T11:25:13;28.50;70.40
58161;DHT22;49345;47.428;9.892;2022-07-22T11:27:39;28.60;69.30
58161;DHT22;49345;47.428;9.892;2022-07-22T11:30:13;28.70;71.00
58161;DHT22;49345;47.428;9.892;2022-07-22T11:32:41;28.80;70.90
58161;DHT22;49345;47.428;9.892;2022-07-22T11:35:10;28.90;70.60
58161;DHT22;49345;47.428;9.892;2022-07-22T11:37:36;29.00;70.60
58161;DHT22;49345;47.428;9.892;2022-07-22T11:40:03;28.90;70.20
58161;DHT22;49345;47.428;9.892;2022-07-22T11:42:30;28.90;71.80
58161;DHT22;49345;47.428;9.892;2022-07-22T11:44:55;29.00;71.30
58161;DHT22;49345;47.428;9.892;2022-07-22T11:47:21;29.00;71.70
58161;DHT22;49345;47.428;9.892;2022-07-22T11:49:47;29.20;70.50
58161;DHT22;49345;47.428;9.892;2022-07-22T11:55:41;29.30;70.60
58161;DHT22;49345;47.428;9.892;2022-07-22T11:58:06;29.30;69.80
58161;DHT22;49345;47.428;9.892;2022-07-22T12:00:32;29.30;69.50
58161;DHT22;49345;47.428;9.892;2022-07-22T12:02:58;29.30;69.40
58161;DHT22;49345;47.428;9.892;2022-07-22T12:05:23;29.50;69.80
58161;DHT22;49345;47.428;9.892;2022-07-22T12:07:49;29.60;69.40
58161;DHT22;49345;47.428;9.892;2022-07-22T12:10:14;29.80;69.10
58161;DHT22;49345;47.428;9.892;2022-07-22T12:12:42;29.90;69.30
58161;DHT22;49345;47.428;9.892;2022-07-22T12:15:08;30.00;68.20
58161;DHT22;49345;47.428;9.892;2022-07-22T12:17:35;29.90;68.20
58161;DHT22;49345;47.428;9.892;2022-07-22T12:23:05;29.90;68.90
58161;DHT22;49345;47.428;9.892;2022-07-22T12:25:30;29.90;66.90
58161;DHT22;49345;47.428;9.892;2022-07-22T12:30:54;29.90;69.20
58161;DHT22;49345;47.428;9.892;2022-07-22T12:33:21;30.00;67.70
58161;DHT22;49345;47.428;9.892;2022-07-22T12:38:42;30.00;67.90
58161;DHT22;49345;47.428;9.892;2022-07-22T12:44:03;30.00;67.60
58161;DHT22;49345;47.428;9.892;2022-07-22T12:46:29;30.20;67.00
58161;DHT22;49345;47.428;9.892;2022-07-22T12:48:54;30.20;66.90
58161;DHT22;49345;47.428;9.892;2022-07-22T12:51:25;30.20;67.30
58161;DHT22;49345;47.428;9.892;2022-07-22T12:53:50;30.10;66.80
58161;DHT22;49345;47.428;9.892;2022-07-22T12:56:16;30.10;67.20
58161;DHT22;49345;47.428;9.892;2022-07-22T12:58:44;30.10;67.50
58161;DHT22;49345;47.428;9.892;2022-07-22T13:01:10;30.10;65.90
58161;DHT22;49345;47.428;9.892;2022-07-22T13:03:36;30.20;65.10
58161;DHT22;49345;47.428;9.892;2022-07-22T13:06:02;30.20;66.30
58161;DHT22;49345;47.428;9.892;2022-07-22T13:08:29;30.20;66.80
58161;DHT22;49345;47.428;9.892;2022-07-22T13:10:54;30.20;66.60
58161;DHT22;49345;47.428;9.892;2022-07-22T13:13:20;30.40;64.80
58161;DHT22;49345;47.428;9.892;2022-07-22T13:15:46;30.40;64.90
58161;DHT22;49345;47.428;9.892;2022-07-22T13:18:12;30.30;64.90
58161;DHT22;49345;47.428;9.892;2022-07-22T13:20:37;30.30;65.10
58161;DHT22;49345;47.428;9.892;2022-07-22T13:23:03;30.30;65.20
58161;DHT22;49345;47.428;9.892;2022-07-22T13:25:29;30.30;65.20
58161;DHT22;49345;47.428;9.892;2022-07-22T13:27:56;30.30;63.70
58161;DHT22;49345;47.428;9.892;2022-07-22T13:30:21;30.40;64.70
58161;DHT22;49345;47.428;9.892;2022-07-22T13:32:47;30.40;64.70
58161;DHT22;49345;47.428;9.892;2022-07-22T13:35:12;30.40;63.00
58161;DHT22;49345;47.428;9.892;2022-07-22T13:37:38;30.50;63.30
58161;DHT22;49345;47.428;9.892;2022-07-22T13:40:04;30.50;63.70
58161;DHT22;49345;47.428;9.892;2022-07-22T13:42:29;30.40;64.00
58161;DHT22;49345;47.428;9.892;2022-07-22T13:44:55;30.40;64.30
58161;DHT22;49345;47.428;9.892;2022-07-22T13:47:20;30.40;63.70
58161;DHT22;49345;47.428;9.892;2022-07-22T13:49:46;30.30;64.30
58161;DHT22;49345;47.428;9.892;2022-07-22T13:52:12;30.30;62.70
58161;DHT22;49345;47.428;9.892;2022-07-22T13:54:38;30.40;63.50
58161;DHT22;49345;47.428;9.892;2022-07-22T13:57:04;30.40;63.30
58161;DHT22;49345;47.428;9.892;2022-07-22T13:59:30;30.50;63.70
58161;DHT22;49345;47.428;9.892;2022-07-22T14:01:56;30.50;63.10
58161;DHT22;49345;47.428;9.892;2022-07-22T14:04:22;30.50;62.40
58161;DHT22;49345;47.428;9.892;2022-07-22T14:06:47;30.50;63.50
58161;DHT22;49345;47.428;9.892;2022-07-22T14:09:13;30.50;63.10
58161;DHT22;49345;47.428;9.892;2022-07-22T14:11:38;30.60;63.80
58161;DHT22;49345;47.428;9.892;2022-07-22T14:14:04;30.60;62.20
58161;DHT22;49345;47.428;9.892;2022-07-22T14:16:31;30.50;62.90
58161;DHT22;49345;47.428;9.892;2022-07-22T14:19:35;30.50;62.60
58161;DHT22;49345;47.428;9.892;2022-07-22T14:22:00;30.50;62.50
58161;DHT22;49345;47.428;9.892;2022-07-22T14:24:26;30.50;63.00
58161;DHT22;49345;47.428;9.892;2022-07-22T14:26:51;30.60;58.90
58161;DHT22;49345;47.428;9.892;2022-07-22T14:29:17;30.60;61.60
58161;DHT22;49345;47.428;9.892;2022-07-22T14:31:42;30.60;59.10
58161;DHT22;49345;47.428;9.892;2022-07-22T14:34:08;30.70;60.00
58161;DHT22;49345;47.428;9.892;2022-07-22T14:36:34;30.70;60.50
58161;DHT22;49345;47.428;9.892;2022-07-22T14:38:59;30.80;59.70
58161;DHT22;49345;47.428;9.892;2022-07-22T14:41:25;30.80;59.70
58161;DHT22;49345;47.428;9.892;2022-07-22T14:43:51;30.90;59.80
58161;DHT22;49345;47.428;9.892;2022-07-22T14:46:16;30.90;60.30
58161;DHT22;49345;47.428;9.892;2022-07-22T14:48:42;31.00;58.80
58161;DHT22;49345;47.428;9.892;2022-07-22T14:51:08;31.10;57.30
58161;DHT22;49345;47.428;9.892;2022-07-22T14:53:34;31.10;56.40
58161;DHT22;49345;47.428;9.892;2022-07-22T14:55:59;31.10;57.50
58161;DHT22;49345;47.428;9.892;2022-07-22T14:58:25;31.10;57.50
58161;DHT22;49345;47.428;9.892;2022-07-22T15:00:51;31.10;56.20
58161;DHT22;49345;47.428;9.892;2022-07-22T15:03:16;31.10;57.10
58161;DHT22;49345;47.428;9.892;2022-07-22T15:05:42;31.10;55.40
58161;DHT22;49345;47.428;9.892;2022-07-22T15:08:08;31.10;55.50
58161;DHT22;49345;47.428;9.892;2022-07-22T15:10:33;31.10;53.70
58161;DHT22;49345;47.428;9.892;2022-07-22T15:12:59;31.20;54.20
58161;DHT22;49345;47.428;9.892;2022-07-22T15:15:25;31.20;54.20
58161;DHT22;49345;47.428;9.892;2022-07-22T15:17:50;31.20;55.70
58161;DHT22;49345;47.428;9.892;2022-07-22T15:20:16;31.30;54.70
58161;DHT22;49345;47.428;9.892;2022-07-22T15:22:41;31.40;54.00
58161;DHT22;49345;47.428;9.892;2022-07-22T15:25:07;31.60;54.90
58161;DHT22;49345;47.428;9.892;2022-07-22T15:27:33;31.60;52.60
58161;DHT22;49345;47.428;9.892;2022-07-22T15:30:04;31.70;52.60
58161;DHT22;49345;47.428;9.892;2022-07-22T15:32:30;31.80;53.40
58161;DHT22;49345;47.428;9.892;2022-07-22T15:34:55;31.80;54.40
58161;DHT22;49345;47.428;9.892;2022-07-22T15:37:21;31.80;51.90
58161;DHT22;49345;47.428;9.892;2022-07-22T15:39:48;31.80;52.00
58161;DHT22;49345;47.428;9.892;2022-07-22T15:42:14;31.90;51.90
58161;DHT22;49345;47.428;9.892;2022-07-22T15:44:40;31.90;52.20
58161;DHT22;49345;47.428;9.892;2022-07-22T15:47:05;31.80;52.00
58161;DHT22;49345;47.428;9.892;2022-07-22T15:49:31;31.90;52.00
58161;DHT22;49345;47.428;9.892;2022-07-22T15:51:56;31.90;51.60
58161;DHT22;49345;47.428;9.892;2022-07-22T15:54:22;31.90;51.40
58161;DHT22;49345;47.428;9.892;2022-07-22T15:56:48;31.90;50.90
58161;DHT22;49345;47.428;9.892;2022-07-22T15:59:14;31.80;51.00
58161;DHT22;49345;47.428;9.892;2022-07-22T16:02:08;31.90;52.00
58161;DHT22;49345;47.428;9.892;2022-07-22T16:04:34;31.90;50.70
58161;DHT22;49345;47.428;9.892;2022-07-22T16:06:59;32.00;50.00
58161;DHT22;49345;47.428;9.892;2022-07-22T16:09:25;32.10;48.20
58161;DHT22;49345;47.428;9.892;2022-07-22T16:11:51;32.20;48.90
58161;DHT22;49345;47.428;9.892;2022-07-22T16:14:16;32.20;48.10
58161;DHT22;49345;47.428;9.892;2022-07-22T16:16:42;32.30;48.10